createdAt,value
2019-01-16T00:01:21.432Z,9.13
2019-01-16T00:02:45.450Z,8.50
2019-01-16T00:04:09.112Z,8.75
2019-01-16T00:05:32.882Z,6.47
2019-01-16T00:06:54.625Z,7.95
2019-01-16T00:08:17.111Z,7.25
2019-01-16T00:09:41.646Z,9.30
2019-01-16T00:11:08.112Z,6.42
2019-01-16T00:12:47.332Z,6.25
2019-01-16T00:14:14.684Z,7.42
2019-01-16T00:15:37.153Z,8.18
2019-01-16T00:16:59.230Z,7.37
2019-01-16T00:18:22.467Z,5.85
2019-01-16T00:19:44.487Z,6.70
2019-01-16T00:21:06.511Z,6.78
2019-01-16T00:22:28.713Z,7.85
2019-01-16T00:23:54.714Z,6.30
2019-01-16T00:25:21.174Z,6.87
2019-01-16T00:26:44.773Z,12.68
2019-01-16T00:28:14.692Z,5.78
2019-01-16T00:29:44.834Z,6.12
2019-01-16T00:31:16.051Z,5.92
2019-01-16T00:32:48.435Z,11.33
2019-01-16T00:34:03.313Z,6.00
2019-01-16T00:35:39.621Z,8.23
2019-01-16T00:37:01.857Z,7.33
2019-01-16T00:38:40.327Z,7.78
2019-01-16T00:39:57.577Z,9.78
2019-01-16T00:41:20.214Z,7.45
2019-01-16T00:42:40.184Z,6.53
2019-01-16T00:44:22.030Z,8.15
2019-01-16T00:45:48.844Z,7.20
2019-01-16T00:47:30.711Z,9.50
2019-01-16T00:48:52.578Z,7.20
2019-01-16T00:50:34.201Z,7.08
2019-01-16T00:52:03.433Z,5.28
2019-01-16T00:53:21.696Z,10.10
2019-01-16T00:54:45.319Z,7.05
2019-01-16T00:56:05.063Z,6.03
2019-01-16T00:57:34.454Z,4.90
2019-01-16T00:58:56.546Z,6.10
2019-01-16T01:00:25.152Z,6.28
2019-01-16T01:02:03.927Z,8.00
2019-01-16T01:03:29.701Z,6.65
2019-01-16T01:04:54.934Z,7.37
2019-01-16T01:06:35.876Z,9.88
2019-01-16T01:08:11.627Z,9.08
2019-01-16T01:09:33.042Z,6.17
2019-01-16T01:10:56.176Z,11.00
2019-01-16T01:12:33.181Z,6.35
2019-01-16T01:13:45.725Z,9.03
2019-01-16T01:15:09.387Z,7.50
2019-01-16T01:16:36.414Z,8.78
2019-01-16T01:18:04.034Z,7.45
2019-01-16T01:19:34.653Z,9.50
2019-01-16T01:20:57.603Z,8.38
2019-01-16T01:22:28.113Z,9.40
2019-01-16T01:24:10.179Z,8.68
2019-01-16T01:25:36.942Z,7.12
2019-01-16T01:26:59.114Z,11.83
2019-01-16T01:28:11.920Z,11.57
2019-01-16T01:29:41.539Z,8.98
2019-01-16T01:30:58.677Z,9.50
2019-01-16T01:32:34.226Z,11.85
2019-01-16T01:33:55.703Z,8.98
2019-01-16T01:35:18.084Z,7.65
2019-01-16T01:36:45.511Z,10.32
2019-01-16T01:38:07.502Z,8.25
2019-01-16T01:39:34.234Z,7.42
2019-01-16T01:41:00.691Z,7.40
2019-01-16T01:42:24.533Z,8.58
2019-01-16T01:44:05.952Z,10.18
2019-01-16T01:45:30.484Z,7.33
2019-01-16T01:46:59.997Z,8.03
2019-01-16T01:48:13.633Z,6.90
2019-01-16T01:49:40.142Z,8.95
2019-01-16T01:51:16.393Z,13.95
2019-01-16T01:52:38.449Z,7.85
2019-01-16T01:54:03.599Z,10.50
2019-01-16T01:55:33.053Z,8.18
2019-01-16T01:56:59.460Z,9.43
2019-01-16T01:58:24.043Z,10.18
2019-01-16T01:59:42.085Z,9.15
2019-01-16T02:00:58.598Z,10.85
2019-01-16T02:02:17.805Z,10.75
2019-01-16T02:03:50.430Z,9.55
2019-01-16T02:05:16.976Z,15.10
2019-01-16T02:06:33.509Z,9.85
2019-01-16T02:08:03.503Z,11.43
2019-01-16T02:09:42.941Z,12.50
2019-01-16T02:11:05.097Z,10.00
2019-01-16T02:12:19.929Z,10.93
2019-01-16T02:13:51.466Z,7.35
2019-01-16T02:15:15.263Z,11.33
2019-01-16T02:16:48.021Z,9.05
2019-01-16T02:18:12.373Z,13.03
2019-01-16T02:19:41.836Z,11.05
2019-01-16T02:21:06.964Z,8.48
2019-01-16T02:22:24.388Z,6.08
2019-01-16T02:24:01.832Z,8.63
2019-01-16T02:25:31.570Z,8.20
2019-01-16T02:26:49.345Z,5.12
2019-01-16T02:28:18.823Z,8.43
2019-01-16T02:29:38.067Z,7.20
2019-01-16T02:31:04.804Z,6.33
2019-01-16T02:32:26.811Z,8.48
2019-01-16T02:33:50.514Z,7.17
2019-01-16T02:35:15.102Z,6.87
2019-01-16T02:36:56.684Z,5.67
2019-01-16T02:38:23.928Z,7.15
2019-01-16T02:39:53.218Z,8.38
2019-01-16T02:41:16.821Z,7.75
2019-01-16T02:42:52.693Z,5.72
2019-01-16T02:44:16.294Z,7.97
2019-01-16T02:45:45.823Z,8.65
2019-01-16T02:47:07.800Z,7.30
2019-01-16T02:48:40.672Z,5.55
2019-01-16T02:50:01.913Z,5.92
2019-01-16T02:51:37.441Z,5.50
2019-01-16T02:52:59.466Z,7.42
2019-01-16T02:54:14.237Z,5.80
2019-01-16T02:55:42.459Z,8.60
2019-01-16T02:57:07.013Z,5.90
2019-01-16T02:58:33.607Z,4.22
2019-01-16T02:59:51.891Z,8.30
2019-01-16T03:01:21.720Z,5.08
2019-01-16T03:02:44.095Z,7.78
2019-01-16T03:04:06.283Z,8.65
2019-01-16T03:05:23.686Z,21.70
2019-01-16T03:06:47.441Z,8.10
2019-01-16T03:08:01.620Z,5.50
2019-01-16T03:09:44.817Z,15.40
2019-01-16T03:11:07.289Z,5.45
2019-01-16T03:12:29.361Z,8.70
2019-01-16T03:14:02.010Z,22.37
2019-01-16T03:15:26.905Z,8.25
2019-01-16T03:16:56.703Z,6.05
2019-01-16T03:18:32.509Z,8.05
2019-01-16T03:20:02.483Z,8.85
2019-01-16T03:21:31.321Z,6.15
2019-01-16T03:22:54.304Z,6.00
2019-01-16T03:24:17.933Z,8.28
2019-01-16T03:25:43.659Z,8.05
2019-01-16T03:27:01.826Z,5.00
2019-01-16T03:28:23.332Z,9.10
2019-01-16T03:29:49.759Z,5.35
2019-01-16T03:31:11.718Z,7.17
2019-01-16T03:32:42.492Z,10.25
2019-01-16T03:34:05.177Z,11.20
2019-01-16T03:35:34.873Z,12.33
2019-01-16T03:37:00.212Z,10.45
2019-01-16T03:38:32.816Z,10.78
2019-01-16T03:39:50.052Z,10.30
2019-01-16T03:41:13.161Z,8.43
2019-01-16T03:42:36.792Z,12.73
2019-01-16T03:44:00.497Z,11.78
2019-01-16T03:45:36.970Z,9.43
2019-01-16T03:47:00.376Z,9.45
2019-01-16T03:48:22.619Z,11.78
2019-01-16T03:49:54.463Z,6.78
2019-01-16T03:51:16.414Z,5.75
2019-01-16T03:52:33.652Z,5.50
2019-01-16T03:54:06.082Z,11.33
2019-01-16T03:55:28.148Z,10.38
2019-01-16T03:56:50.993Z,10.08
2019-01-16T03:58:14.666Z,6.80
2019-01-16T03:59:47.445Z,6.65
2019-01-16T04:01:11.452Z,5.12
2019-01-16T04:02:33.451Z,7.72
2019-01-16T04:03:59.584Z,6.78
2019-01-16T04:05:29.734Z,5.85
2019-01-16T04:06:59.247Z,7.08
2019-01-16T04:08:21.485Z,6.28
2019-01-16T04:09:51.756Z,6.05
2019-01-16T04:11:14.208Z,5.78
2019-01-16T04:12:37.938Z,8.90
2019-01-16T04:14:05.836Z,6.62
2019-01-16T04:15:36.159Z,4.55
2019-01-16T04:16:53.462Z,7.95
2019-01-16T04:18:15.464Z,19.02
2019-01-16T04:19:37.436Z,7.00
2019-01-16T04:20:56.083Z,6.62
2019-01-16T04:22:27.797Z,5.87
2019-01-16T04:23:49.970Z,5.28
2019-01-16T04:25:22.334Z,6.90
2019-01-16T04:26:50.176Z,5.55
2019-01-16T04:28:12.491Z,6.10
2019-01-16T04:29:35.872Z,11.55
2019-01-16T04:31:14.380Z,8.00
2019-01-16T04:32:37.255Z,9.18
2019-01-16T04:34:04.434Z,7.53
2019-01-16T04:35:20.941Z,6.75
2019-01-16T04:36:48.675Z,6.92
2019-01-16T04:38:07.499Z,4.90
2019-01-16T04:39:33.940Z,6.33
2019-01-16T04:41:12.521Z,6.05
2019-01-16T04:44:44.035Z,3.50
2019-01-16T04:46:07.065Z,3.45
2019-01-16T04:47:30.670Z,4.30
2019-01-16T04:48:57.143Z,3.22
2019-01-16T04:50:26.922Z,4.03
2019-01-16T04:52:05.732Z,3.72
2019-01-16T04:53:32.521Z,7.47
2019-01-16T04:55:04.714Z,4.22
2019-01-16T04:56:27.490Z,3.60
2019-01-16T04:57:54.324Z,5.92
2019-01-16T04:59:23.792Z,4.55
2019-01-16T05:00:53.567Z,3.90
2019-01-16T05:02:15.543Z,3.65
2019-01-16T05:03:39.211Z,5.72
2019-01-16T05:05:08.015Z,8.80
2019-01-16T05:06:34.642Z,5.00
2019-01-16T05:07:58.854Z,4.00
2019-01-16T05:09:27.590Z,3.52
2019-01-16T05:10:51.280Z,4.58
2019-01-16T05:12:20.776Z,4.15
2019-01-16T05:13:42.619Z,4.53
2019-01-16T05:15:04.630Z,5.87
2019-01-16T05:16:20.307Z,4.95
2019-01-16T05:17:42.595Z,3.95
2019-01-16T05:19:06.086Z,6.08
2019-01-16T05:20:28.381Z,5.37
2019-01-16T05:21:50.331Z,5.10
2019-01-16T05:23:11.537Z,4.35
2019-01-16T05:24:38.252Z,3.50
2019-01-16T05:26:09.221Z,6.40
2019-01-16T05:27:31.254Z,4.03
2019-01-16T05:29:10.271Z,6.00
2019-01-16T05:30:34.119Z,4.83
2019-01-16T05:31:58.140Z,4.10
2019-01-16T05:33:25.167Z,4.95
2019-01-16T05:34:47.415Z,5.90
2019-01-16T05:36:23.028Z,4.97
2019-01-16T05:38:02.471Z,5.62
2019-01-16T05:39:19.568Z,8.75
2019-01-16T05:40:41.450Z,5.03
2019-01-16T05:42:05.206Z,6.45
2019-01-16T05:43:38.369Z,5.45
2019-01-16T05:45:00.334Z,6.80
2019-01-16T05:46:16.943Z,5.67
2019-01-16T05:47:43.478Z,7.70
2019-01-16T05:49:13.504Z,6.55
2019-01-16T05:50:46.233Z,6.55
2019-01-16T05:52:04.334Z,6.80
2019-01-16T05:53:49.178Z,7.28
2019-01-16T05:55:11.232Z,5.35
2019-01-16T05:56:32.535Z,6.70
2019-01-16T05:57:55.013Z,4.95
2019-01-16T05:59:18.715Z,5.92
2019-01-16T06:00:45.479Z,4.80
2019-01-16T06:02:08.396Z,6.95
2019-01-16T06:03:34.790Z,7.12
2019-01-16T06:04:56.570Z,4.85
2019-01-16T06:06:18.733Z,5.25
2019-01-16T06:07:43.534Z,6.75
2019-01-16T06:09:12.975Z,6.15
2019-01-16T06:10:42.536Z,8.25
2019-01-16T06:12:06.190Z,7.70
2019-01-16T06:13:36.397Z,10.55
2019-01-16T06:15:13.365Z,7.78
2019-01-16T06:16:35.650Z,7.30
2019-01-16T06:17:57.695Z,14.00
2019-01-16T06:19:20.191Z,8.23
2019-01-16T06:20:48.522Z,11.03
2019-01-16T06:22:10.617Z,7.17
2019-01-16T06:23:28.022Z,7.00
2019-01-16T06:24:55.171Z,6.15
2019-01-16T06:26:09.883Z,5.12
2019-01-16T06:27:39.891Z,7.20
2019-01-16T06:29:01.758Z,10.20
2019-01-16T06:30:31.893Z,7.35
2019-01-16T06:32:01.672Z,8.85
2019-01-16T06:33:24.085Z,9.30
2019-01-16T06:34:43.598Z,7.72
2019-01-16T06:36:06.692Z,7.87
2019-01-16T06:37:40.838Z,8.05
2019-01-16T06:38:59.555Z,8.50
2019-01-16T06:40:32.085Z,8.60
2019-01-16T06:42:29.607Z,8.05
2019-01-16T06:43:37.820Z,15.13
2019-01-16T06:45:06.551Z,10.63
2019-01-16T06:46:43.513Z,7.75
2019-01-16T06:48:06.458Z,9.63
2019-01-16T06:49:28.540Z,9.38
2019-01-16T06:50:57.077Z,7.15
2019-01-16T06:52:22.760Z,16.15
2019-01-16T06:53:38.363Z,11.15
2019-01-16T06:55:13.949Z,8.18
2019-01-16T06:56:50.156Z,9.63
2019-01-16T06:58:12.212Z,9.98
2019-01-16T06:59:48.356Z,11.95
2019-01-16T07:01:12.047Z,11.10
2019-01-16T07:02:50.716Z,6.45
2019-01-16T07:04:29.450Z,5.55
2019-01-16T07:06:08.194Z,9.13
2019-01-16T07:07:31.869Z,9.30
2019-01-16T07:08:46.349Z,8.38
2019-01-16T07:10:08.339Z,7.60
2019-01-16T07:11:39.905Z,11.60
2019-01-16T07:13:01.739Z,6.83
2019-01-16T07:14:28.654Z,11.12
2019-01-16T07:15:52.490Z,8.15
2019-01-16T07:17:31.282Z,9.83
2019-01-16T07:19:09.807Z,7.20
2019-01-16T07:20:40.383Z,6.83
2019-01-16T07:22:05.573Z,6.42
2019-01-16T07:23:18.409Z,6.05
2019-01-16T07:24:36.746Z,5.47
2019-01-16T07:26:14.967Z,6.22
2019-01-16T07:27:55.187Z,11.80
2019-01-16T07:29:17.581Z,8.23
2019-01-16T07:30:40.735Z,10.40
2019-01-16T07:32:13.241Z,5.20
2019-01-16T07:33:36.919Z,10.65
2019-01-16T07:34:54.523Z,11.00
2019-01-16T07:36:11.810Z,10.85
2019-01-16T07:37:38.660Z,7.20
2019-01-16T07:39:08.797Z,5.33
2019-01-16T07:40:31.267Z,6.55
2019-01-16T07:41:47.424Z,6.50
2019-01-16T07:43:14.086Z,10.08
2019-01-16T07:44:44.638Z,7.03
2019-01-16T07:46:14.142Z,5.60
2019-01-16T07:47:40.762Z,5.20
2019-01-16T07:49:16.459Z,6.00
2019-01-16T07:50:50.675Z,8.78
2019-01-16T07:52:26.398Z,6.05
2019-01-16T07:53:50.103Z,5.67
2019-01-16T07:55:10.440Z,11.00
2019-01-16T07:56:38.093Z,12.35
2019-01-16T07:58:00.271Z,13.80
2019-01-16T07:59:25.503Z,9.35
2019-01-16T08:00:57.939Z,12.07
2019-01-16T08:02:28.473Z,10.28
2019-01-16T08:04:07.425Z,12.05
2019-01-16T08:05:38.581Z,11.03
2019-01-16T08:06:56.911Z,11.78
2019-01-16T08:08:13.579Z,12.65
2019-01-16T08:09:28.768Z,9.60
2019-01-16T08:11:05.954Z,8.83
2019-01-16T08:12:30.542Z,10.00
2019-01-16T08:13:52.835Z,9.25
2019-01-16T08:15:36.126Z,12.47
2019-01-16T08:17:05.931Z,9.40
2019-01-16T08:18:28.137Z,12.33
2019-01-16T08:19:48.471Z,11.18
2019-01-16T08:21:21.241Z,10.25
2019-01-16T08:22:48.526Z,9.95
2019-01-16T08:24:21.739Z,16.15
2019-01-16T08:25:57.785Z,11.25
2019-01-16T08:27:17.694Z,13.40
2019-01-16T08:28:48.014Z,9.65
2019-01-16T08:30:23.779Z,8.78
2019-01-16T08:31:57.515Z,16.37
2019-01-16T08:33:24.011Z,11.12
2019-01-16T08:34:49.362Z,11.97
2019-01-16T08:36:18.748Z,13.65
2019-01-16T08:37:39.827Z,11.95
2019-01-16T08:39:12.727Z,10.25
2019-01-16T08:40:42.383Z,14.33
2019-01-16T08:42:02.709Z,11.50
2019-01-16T08:43:21.432Z,19.52
2019-01-16T08:44:54.023Z,12.37
2019-01-16T08:46:29.694Z,8.75
2019-01-16T08:47:59.374Z,13.25
2019-01-16T08:49:21.658Z,11.80
2019-01-16T08:50:54.632Z,9.13
2019-01-16T08:52:17.033Z,12.90
2019-01-16T08:53:45.090Z,12.63
2019-01-16T08:55:24.305Z,14.98
2019-01-16T08:56:51.056Z,13.40
2019-01-16T08:58:28.487Z,14.68
2019-01-16T08:59:55.131Z,11.68
2019-01-16T09:01:35.673Z,12.60
2019-01-16T09:03:08.500Z,15.53
2019-01-16T09:04:26.017Z,13.72
2019-01-16T09:05:47.240Z,12.18
2019-01-16T09:07:29.245Z,13.15
2019-01-16T09:08:51.627Z,16.80
2019-01-16T09:10:21.179Z,16.40
2019-01-16T09:11:48.089Z,9.25
2019-01-16T09:13:15.819Z,14.55
2019-01-16T09:14:48.601Z,11.10
2019-01-16T09:16:12.282Z,10.60
2019-01-16T09:17:45.240Z,15.70
2019-01-16T09:19:12.336Z,18.37
2019-01-16T09:20:40.022Z,16.05
2019-01-16T09:21:58.517Z,13.68
2019-01-16T09:23:22.768Z,15.30
2019-01-16T09:25:01.748Z,15.48
2019-01-16T09:26:37.295Z,15.80
2019-01-16T09:28:02.044Z,15.75
2019-01-16T09:29:31.790Z,16.02
2019-01-16T09:31:04.354Z,16.87
2019-01-16T09:32:36.424Z,13.53
2019-01-16T09:33:59.193Z,16.25
2019-01-16T09:35:25.054Z,15.18
2019-01-16T09:36:48.237Z,12.85
2019-01-16T09:38:12.075Z,28.57
2019-01-16T09:39:38.201Z,28.80
2019-01-16T09:41:17.102Z,15.38
2019-01-16T09:42:34.259Z,13.58
2019-01-16T09:47:58.404Z,19.42
2019-01-16T09:49:25.185Z,15.23
2019-01-16T09:51:02.088Z,15.60
2019-01-16T09:52:30.090Z,20.23
2019-01-16T09:53:57.346Z,17.27
2019-01-16T09:55:31.697Z,16.73
2019-01-16T09:56:56.744Z,15.72
2019-01-16T09:58:34.707Z,16.93
2019-01-16T09:59:58.382Z,20.17
2019-01-16T10:01:16.747Z,16.17
2019-01-16T10:02:55.247Z,14.85
2019-01-16T10:04:17.614Z,14.28
2019-01-16T10:05:50.893Z,10.78
2019-01-16T10:07:15.441Z,13.38
2019-01-16T10:08:34.810Z,15.58
2019-01-16T10:10:13.633Z,12.53
2019-01-16T10:11:46.258Z,14.85
2019-01-16T10:13:09.941Z,15.18
2019-01-16T10:14:33.043Z,22.00
2019-01-16T10:16:11.591Z,20.37
2019-01-16T10:17:44.430Z,10.85
2019-01-16T10:19:17.604Z,10.53
2019-01-16T10:20:46.088Z,15.00
2019-01-16T10:22:15.075Z,15.55
2019-01-16T10:23:39.150Z,13.68
2019-01-16T10:25:14.310Z,18.23
2019-01-16T10:26:47.852Z,17.23
2019-01-16T10:28:11.612Z,16.75
2019-01-16T10:29:30.124Z,13.40
2019-01-16T10:30:56.905Z,14.28
2019-01-16T10:32:13.021Z,16.67
2019-01-16T10:33:36.631Z,14.78
2019-01-16T10:35:00.577Z,15.35
2019-01-16T10:36:23.083Z,12.25
2019-01-16T10:37:50.047Z,16.95
2019-01-16T10:39:25.854Z,16.32
2019-01-16T10:40:47.878Z,16.48
2019-01-16T10:42:39.874Z,18.92
2019-01-16T10:44:02.863Z,10.63
2019-01-16T10:45:38.811Z,9.33
2019-01-16T10:47:20.703Z,12.43
2019-01-16T10:48:51.854Z,15.80
2019-01-16T10:50:16.926Z,11.68
2019-01-16T10:51:58.787Z,11.28
2019-01-16T10:53:22.474Z,13.43
2019-01-16T10:54:44.617Z,11.05
2019-01-16T10:56:11.461Z,17.77
2019-01-16T10:57:44.205Z,10.75
2019-01-16T10:58:59.965Z,17.67
2019-01-16T11:00:28.761Z,23.05
2019-01-16T11:02:01.175Z,13.93
2019-01-16T11:03:22.189Z,17.62
2019-01-16T11:04:57.679Z,19.85
2019-01-16T11:06:19.597Z,15.03
2019-01-16T11:07:52.078Z,9.70
2019-01-16T11:09:14.535Z,14.68
2019-01-16T11:10:45.646Z,17.82
2019-01-16T11:12:06.889Z,26.70
2019-01-16T11:13:29.203Z,21.82
2019-01-16T11:14:50.097Z,13.48
2019-01-16T11:16:12.735Z,12.78
2019-01-16T11:17:34.740Z,12.03
2019-01-16T11:19:00.388Z,13.95
2019-01-16T11:20:30.126Z,9.25
2019-01-16T11:22:09.219Z,12.68
2019-01-16T11:23:33.774Z,9.88
2019-01-16T11:25:20.187Z,12.68
2019-01-16T11:26:58.426Z,11.48
2019-01-16T11:28:20.916Z,17.95
2019-01-16T11:29:56.635Z,16.12
2019-01-16T11:31:19.004Z,21.02
2019-01-16T11:32:41.491Z,42.78
2019-01-16T11:34:04.050Z,25.82
2019-01-16T11:35:26.634Z,19.67
2019-01-16T11:36:56.856Z,14.63
2019-01-16T11:38:30.461Z,10.85
2019-01-16T11:40:04.453Z,29.42
2019-01-16T11:41:40.314Z,14.78
2019-01-16T11:43:01.643Z,20.90
2019-01-16T11:44:31.335Z,17.02
2019-01-16T11:45:56.621Z,19.32
2019-01-16T11:47:35.537Z,21.57
2019-01-16T11:48:58.126Z,15.75
2019-01-16T11:50:26.685Z,18.50
2019-01-16T11:51:57.179Z,13.38
2019-01-16T11:53:20.938Z,12.60
2019-01-16T11:54:50.007Z,14.28
2019-01-16T11:56:22.700Z,19.25
2019-01-16T11:57:46.319Z,22.00
2019-01-16T11:59:10.003Z,15.18
2019-01-16T12:00:26.534Z,12.00
2019-01-16T12:01:48.735Z,16.15
2019-01-16T12:03:24.677Z,14.25
2019-01-16T12:04:54.470Z,17.98
2019-01-16T12:06:16.526Z,13.40
2019-01-16T12:07:58.142Z,17.45
2019-01-16T12:09:23.255Z,14.75
2019-01-16T12:10:46.688Z,25.10
2019-01-16T12:12:10.368Z,15.93
2019-01-16T12:13:34.194Z,11.88
2019-01-16T12:14:59.835Z,11.97
2019-01-16T12:16:29.910Z,18.00
2019-01-16T12:17:53.707Z,20.48
2019-01-16T12:19:21.443Z,13.75
2019-01-16T12:20:47.943Z,14.80
2019-01-16T12:22:20.111Z,16.27
2019-01-16T12:23:50.004Z,14.25
2019-01-16T12:25:02.461Z,23.27
2019-01-16T12:26:19.984Z,11.43
2019-01-16T12:27:47.726Z,20.48
2019-01-16T12:29:29.378Z,10.53
2019-01-16T12:30:53.101Z,19.70
2019-01-16T12:32:15.090Z,12.28
2019-01-16T12:33:45.286Z,16.80
2019-01-16T12:35:23.190Z,16.93
2019-01-16T12:36:55.375Z,19.32
2019-01-16T12:38:19.091Z,16.90
2019-01-16T12:39:41.815Z,24.45
2019-01-16T12:41:14.822Z,16.48
2019-01-16T12:43:02.279Z,11.60
2019-01-16T12:44:32.086Z,15.40
2019-01-16T12:46:11.795Z,17.25
2019-01-16T12:47:33.146Z,20.05
2019-01-16T12:49:06.864Z,20.10
2019-01-16T12:50:41.169Z,16.95
2019-01-16T12:52:03.947Z,19.05
2019-01-16T12:53:50.202Z,20.75
2019-01-16T12:55:12.041Z,20.88
2019-01-16T12:56:30.407Z,18.60
2019-01-16T12:58:03.784Z,22.17
2019-01-16T12:59:29.541Z,16.27
2019-01-16T13:00:56.662Z,24.02
2019-01-16T13:02:20.646Z,22.37
2019-01-16T13:03:41.974Z,20.35
2019-01-16T13:05:09.122Z,20.02
2019-01-16T13:06:35.979Z,28.95
2019-01-16T13:08:05.897Z,22.67
2019-01-16T13:09:29.179Z,26.40
2019-01-16T13:10:54.256Z,21.25
2019-01-16T13:12:26.990Z,21.95
2019-01-16T13:13:54.556Z,17.87
2019-01-16T13:15:34.839Z,19.00
2019-01-16T13:17:04.643Z,26.15
2019-01-16T13:18:25.801Z,21.07
2019-01-16T13:20:07.912Z,28.83
2019-01-16T13:21:49.734Z,19.00
2019-01-16T13:23:16.582Z,17.60
2019-01-16T13:24:49.334Z,23.35
2019-01-16T13:26:15.186Z,27.05
2019-01-16T13:27:45.529Z,23.02
2019-01-16T13:29:11.188Z,24.25
2019-01-16T13:30:36.984Z,14.50
2019-01-16T13:32:10.027Z,15.65
2019-01-16T13:33:34.844Z,14.63
2019-01-16T13:35:16.398Z,12.95
2019-01-16T13:36:38.648Z,12.00
2019-01-16T13:38:03.291Z,21.15
2019-01-16T13:39:38.119Z,24.35
2019-01-16T13:41:08.023Z,22.15
2019-01-16T13:42:34.469Z,13.25
2019-01-16T13:43:56.593Z,19.62
2019-01-16T13:45:20.364Z,22.25
2019-01-16T13:46:50.182Z,24.18
2019-01-16T13:48:10.295Z,25.88
2019-01-16T13:49:39.244Z,20.27
2019-01-16T13:51:10.567Z,16.40
2019-01-16T13:52:32.978Z,9.98
2019-01-16T13:54:07.832Z,16.32
2019-01-16T13:55:49.487Z,21.73
2019-01-16T13:57:31.334Z,16.73
2019-01-16T13:59:07.371Z,14.13
2019-01-16T14:00:41.802Z,18.73
2019-01-16T14:02:09.189Z,17.42
2019-01-16T14:03:34.642Z,38.73
2019-01-16T14:05:19.879Z,21.60
2019-01-16T14:06:49.856Z,25.40
2019-01-16T14:08:06.320Z,20.35
2019-01-16T14:09:38.104Z,17.75
2019-01-16T14:10:49.145Z,14.60
2019-01-16T14:12:11.786Z,16.80
2019-01-16T14:13:44.798Z,11.48
2019-01-16T14:15:07.406Z,14.33
2019-01-16T14:16:43.727Z,15.25
2019-01-16T14:18:12.918Z,14.98
2019-01-16T14:19:36.044Z,16.00
2019-01-16T14:21:04.089Z,18.80
2019-01-16T14:22:41.736Z,13.80
2019-01-16T14:24:04.005Z,17.17
2019-01-16T14:25:31.330Z,14.18
2019-01-16T14:26:56.087Z,14.85
2019-01-16T14:28:17.934Z,10.25
2019-01-16T14:29:48.186Z,10.35
2019-01-16T14:31:21.838Z,17.10
2019-01-16T14:32:52.478Z,14.38
2019-01-16T14:34:25.847Z,12.15
2019-01-16T14:35:38.568Z,13.53
2019-01-16T14:37:06.440Z,12.25
2019-01-16T14:38:41.043Z,9.60
2019-01-16T14:40:03.472Z,10.80
2019-01-16T14:41:33.467Z,14.53
2019-01-16T14:42:51.721Z,10.70
2019-01-16T14:44:18.467Z,13.48
2019-01-16T14:45:41.282Z,13.58
2019-01-16T14:47:11.783Z,13.93
2019-01-16T14:48:41.236Z,19.17
2019-01-16T14:50:08.368Z,17.75
2019-01-16T14:51:38.584Z,16.00
2019-01-16T14:53:07.230Z,10.20
2019-01-16T14:54:37.263Z,15.13
2019-01-16T14:56:13.060Z,12.47
2019-01-16T14:57:35.089Z,24.32
2019-01-16T14:59:04.386Z,19.55
2019-01-16T15:00:32.244Z,14.38
2019-01-16T15:02:04.399Z,19.45
2019-01-16T15:03:26.490Z,26.42
2019-01-16T15:04:53.156Z,28.25
2019-01-16T15:06:15.708Z,21.57
2019-01-16T15:07:55.142Z,17.80
2019-01-16T15:09:30.966Z,24.05
2019-01-16T15:10:57.815Z,21.20
2019-01-16T15:12:26.541Z,34.18
2019-01-16T15:13:46.145Z,37.42
2019-01-16T15:15:15.689Z,33.70
2019-01-16T15:16:39.921Z,40.58
2019-01-16T15:18:21.604Z,25.55
2019-01-16T15:19:49.932Z,36.60
2019-01-16T15:21:19.701Z,35.33
2019-01-16T15:22:35.488Z,45.23
2019-01-16T15:24:00.078Z,42.67
2019-01-16T15:25:24.706Z,26.68
2019-01-16T15:26:49.706Z,27.40
2019-01-16T15:28:06.161Z,25.10
2019-01-16T15:29:29.175Z,32.20
2019-01-16T15:30:49.858Z,19.90
2019-01-16T15:32:15.945Z,16.02
2019-01-16T15:33:41.261Z,32.95
2019-01-16T15:35:09.597Z,51.58
2019-01-16T15:36:35.957Z,17.07
2019-01-16T15:38:07.746Z,50.78
2019-01-16T15:39:41.214Z,33.95
2019-01-16T15:41:17.538Z,19.37
2019-01-16T15:43:00.373Z,16.60
2019-01-16T15:44:16.788Z,18.50
2019-01-16T15:45:46.155Z,21.30
2019-01-16T15:47:30.730Z,19.20
2019-01-16T15:48:54.468Z,16.02
2019-01-16T15:50:25.562Z,12.73
2019-01-16T15:51:52.643Z,13.22
2019-01-16T15:53:07.863Z,14.98
2019-01-16T15:54:36.358Z,9.55
2019-01-16T15:56:18.720Z,13.62
2019-01-16T15:57:35.499Z,12.80
2019-01-16T15:59:08.701Z,10.48
2019-01-16T16:00:49.489Z,15.38
2019-01-16T16:02:20.835Z,10.28
2019-01-16T16:03:43.754Z,11.05
2019-01-16T16:05:12.037Z,13.28
2019-01-16T16:06:38.263Z,17.02
2019-01-16T16:08:10.737Z,11.60
2019-01-16T16:09:38.730Z,13.78
2019-01-16T16:11:04.417Z,13.85
2019-01-16T16:12:24.560Z,15.98
2019-01-16T16:13:46.889Z,20.75
2019-01-16T16:15:02.757Z,11.48
2019-01-16T16:16:29.574Z,8.88
2019-01-16T16:18:03.041Z,8.15
2019-01-16T16:19:44.745Z,10.30
2019-01-16T16:21:22.727Z,11.08
2019-01-16T16:22:50.811Z,12.10
2019-01-16T16:24:11.779Z,18.45
2019-01-16T16:25:37.674Z,10.32
2019-01-16T16:27:08.273Z,19.40
2019-01-16T16:28:35.305Z,9.58
2019-01-16T16:30:17.489Z,16.00
2019-01-16T16:31:36.230Z,15.68
2019-01-16T16:32:58.600Z,12.93
2019-01-16T16:34:25.841Z,13.78
2019-01-16T16:35:58.577Z,13.90
2019-01-16T16:37:22.072Z,15.20
2019-01-16T16:38:56.813Z,16.25
2019-01-16T16:40:30.480Z,11.43
2019-01-16T16:41:54.195Z,16.77
2019-01-16T16:43:18.173Z,21.87
2019-01-16T16:44:46.846Z,10.60
2019-01-16T16:46:07.425Z,18.55
2019-01-16T16:47:29.491Z,9.58
2019-01-16T16:48:53.218Z,17.82
2019-01-16T16:50:20.069Z,13.22
2019-01-16T16:51:50.102Z,24.25
2019-01-16T16:53:25.720Z,24.75
2019-01-16T16:55:04.346Z,9.98
2019-01-16T16:56:26.894Z,9.20
2019-01-16T16:57:48.730Z,11.95
2019-01-16T16:59:12.439Z,15.60
2019-01-16T17:00:46.056Z,11.22
2019-01-16T17:02:04.740Z,18.42
2019-01-16T17:03:49.454Z,17.37
2019-01-16T17:05:20.725Z,11.30
2019-01-16T17:07:01.505Z,17.55
2019-01-16T17:08:17.536Z,15.35
2019-01-16T17:09:45.135Z,15.18
2019-01-16T17:11:20.781Z,18.23
2019-01-16T17:12:45.079Z,9.03
2019-01-16T17:14:09.334Z,18.00
2019-01-16T17:15:36.874Z,13.72
2019-01-16T17:17:00.264Z,19.05
2019-01-16T17:18:22.765Z,12.88
2019-01-16T17:19:49.657Z,11.22
2019-01-16T17:21:22.450Z,13.18
2019-01-16T17:22:39.770Z,16.45
2019-01-16T17:24:10.326Z,14.83
2019-01-16T17:25:29.316Z,11.57
2019-01-16T17:26:49.045Z,11.93
2019-01-16T17:28:27.591Z,12.65
2019-01-16T17:29:51.934Z,12.58
2019-01-16T17:31:14.026Z,13.85
2019-01-16T17:32:46.763Z,24.00
2019-01-16T17:34:17.695Z,15.48
2019-01-16T17:35:47.545Z,22.35
2019-01-16T17:37:26.809Z,15.05
2019-01-16T17:38:51.802Z,19.20
2019-01-16T17:40:13.678Z,20.48
2019-01-16T17:41:54.151Z,28.70
2019-01-16T17:43:16.605Z,25.70
2019-01-16T17:44:49.581Z,24.35
2019-01-16T17:46:12.921Z,27.22
2019-01-16T17:47:35.468Z,34.70
2019-01-16T17:48:53.581Z,21.27
2019-01-16T17:50:15.186Z,19.70
2019-01-16T17:51:32.012Z,22.07
2019-01-16T17:52:58.694Z,34.98
2019-01-16T17:54:25.223Z,24.37
2019-01-16T17:55:49.641Z,26.42
2019-01-16T17:57:19.090Z,21.27
2019-01-16T17:58:44.922Z,23.92
2019-01-16T18:00:09.186Z,25.15
2019-01-16T18:01:35.648Z,16.93
2019-01-16T18:03:08.183Z,24.70
2019-01-16T18:04:37.754Z,28.23
2019-01-16T18:06:07.425Z,28.30
2019-01-16T18:07:46.349Z,28.87
2019-01-16T18:09:15.027Z,22.37
2019-01-16T18:10:46.349Z,51.95
2019-01-16T18:12:16.129Z,66.95
2019-01-16T18:13:48.076Z,33.55
2019-01-16T18:15:10.411Z,33.60
2019-01-16T18:16:34.375Z,37.17
2019-01-16T18:17:56.612Z,30.52
2019-01-16T18:19:19.707Z,28.50
2019-01-16T18:20:45.658Z,39.10
2019-01-16T18:22:16.254Z,27.07
2019-01-16T18:23:47.163Z,40.33
2019-01-16T18:25:13.003Z,35.98
2019-01-16T18:26:47.946Z,31.50
2019-01-16T18:28:30.203Z,23.55
2019-01-16T18:30:02.850Z,18.65
2019-01-16T18:31:38.858Z,14.87
2019-01-16T18:33:05.530Z,14.98
2019-01-16T18:34:26.034Z,14.40
2019-01-16T18:35:50.186Z,12.43
2019-01-16T18:37:14.306Z,14.13
2019-01-16T18:38:50.162Z,25.15
2019-01-16T18:40:02.687Z,14.78
2019-01-16T18:41:24.182Z,11.85
2019-01-16T18:43:03.005Z,21.62
2019-01-16T18:44:33.054Z,12.95
2019-01-16T18:45:59.384Z,12.00
2019-01-16T18:47:20.182Z,15.45
2019-01-16T18:48:45.461Z,16.80
2019-01-16T18:50:04.988Z,15.72
2019-01-16T18:51:29.951Z,15.98
2019-01-16T18:52:53.181Z,12.55
2019-01-16T18:54:22.340Z,13.95
2019-01-16T18:55:44.732Z,24.43
2019-01-16T18:57:23.318Z,64.15
2019-01-16T18:58:59.989Z,42.40
2019-01-16T19:00:15.345Z,30.45
2019-01-16T19:01:46.376Z,24.35
2019-01-16T19:03:27.320Z,31.75
2019-01-16T19:04:53.886Z,16.40
2019-01-16T19:06:17.747Z,12.65